Time;durP1;ratioP1;P1;durP2;ratioP2;P2;SDS_P1;SDS_P2;PMS_P1;PMS_P2;Temp;Humidity;BMP_temperature;BMP_pressure;BME280_temperature;BME280_humidity;BME280_pressure;Samples;Min_cycle;Max_cycle;Signal;HPM_P1;HPM_P2
2022/12/13 00:01:55;;;;;;;;;;;;;;;-144.99;90.40;52664.16;5026844;28;19936;-75
2022/12/13 00:04:23;;;;;;;;;;;;;;;-144.99;90.11;52684.53;5027109;28;19937;-75
2022/12/13 00:06:52;;;;;;;;;;;;;;;-144.99;90.14;52668.22;5023428;28;19980;-74
2022/12/13 00:09:19;;;;;;;;;;;;;;;-144.99;89.94;52649.88;5022473;28;19952;-75
2022/12/13 00:11:46;;;;;;;;;;;;;;;-144.99;90.32;52688.63;5023135;28;19918;-73
2022/12/13 00:14:13;;;;;;;;;;;;;;;-144.99;90.37;52702.88;5023098;28;20436;-75
2022/12/13 00:16:40;;;;;;;;;;;;;;;-144.99;90.83;52643.78;5028877;28;19952;-74
2022/12/13 00:19:07;;;;;;;;;;;;;;;-144.99;90.92;52656.00;5027621;28;19930;-75
2022/12/13 00:21:34;;;;;;;;;;;;;;;-144.99;91.64;52668.22;5026478;28;19924;-75
2022/12/13 00:24:01;;;;;;;;;;;;;;;-144.99;91.44;52656.00;5028553;28;20216;-76
2022/12/13 00:26:29;;;;;;;;;;;;;;;-144.99;91.18;52668.22;5026052;28;19926;-75
2022/12/13 00:28:56;;;;;;;;;;;;;;;-144.99;91.28;52680.47;5026482;28;19949;-74
2022/12/13 00:31:24;;;;;;;;;;;;;;;-144.99;91.16;52680.47;5027546;28;19929;-75
2022/12/13 00:33:51;;;;;;;;;;;;;;;-144.99;91.58;52692.69;5028128;28;19925;-74
2022/12/13 00:36:18;;;;;;;;;;;;;;;-144.99;91.51;52676.38;4957563;28;1826379;-74
2022/12/13 00:38:45;;;;;;;;;;;;;;;-144.99;91.68;52668.22;5019646;28;19952;-74
2022/12/13 00:41:13;;;;;;;;;;;;;;;-144.99;91.66;52645.81;5019576;28;19929;-76
2022/12/13 00:43:39;;;;;;;;;;;;;;;-144.99;91.63;52670.28;5020086;28;19932;-75
2022/12/13 00:46:07;;;;;;;;;;;;;;;-144.99;91.51;52647.84;4681495;28;10000412;-77
2022/12/13 00:48:33;;;;;;;;;;;;;;;-144.99;91.09;52647.84;5029280;28;19929;-77
2022/12/13 00:51:00;;;;;;;;;;;;;;;-144.99;91.14;52660.09;5028622;28;19925;-75
2022/12/13 00:53:26;;;;;;;;;;;;;;;-144.99;91.02;52684.53;5028359;28;19921;-76
2022/12/13 00:55:54;;;;;;;;;;;;;;;-144.99;90.84;52660.09;5031208;28;19933;-76
2022/12/13 00:58:20;;;;;;;;;;;;;;;-144.99;90.88;52635.63;5030854;28;19921;-76
2022/12/13 01:00:47;;;;;;;;;;;;;;;-144.99;91.28;52656.00;5030997;28;19926;-75
2022/12/13 01:03:20;;;;;;;;;;;;;;;-144.99;91.52;52668.22;5029904;28;19933;-76
2022/12/13 01:05:46;;;;;;;;;;;;;;;-144.99;91.72;52658.03;5032044;28;19925;-75
2022/12/13 01:08:13;;;;;;;;;;;;;;;-144.99;91.75;52643.78;5031964;28;19913;-76
2022/12/13 01:10:42;;;;;;;;;;;;;;;-144.99;91.79;52651.94;5033036;28;19951;-76
2022/12/13 01:13:10;;;;;;;;;;;;;;;-144.99;91.55;52647.84;5032121;28;19917;-75
2022/12/13 01:15:39;;;;;;;;;;;;;;;-144.99;91.44;52629.50;5034447;28;19913;-75
2022/12/13 01:18:06;;;;;;;;;;;;;;;-144.99;91.38;52639.69;5034054;28;19929;-77
2022/12/13 01:20:32;;;;;;;;;;;;;;;-144.99;91.07;52660.09;5034911;28;19913;-75
2022/12/13 01:22:59;;;;;;;;;;;;;;;-144.99;91.16;52668.22;5033494;28;19929;-76
2022/12/13 01:25:25;;;;;;;;;;;;;;;-144.99;91.15;52643.78;5034595;28;19925;-76
2022/12/13 01:27:52;;;;;;;;;;;;;;;-144.99;92.03;52668.22;5034174;28;19930;-75
2022/12/13 01:30:20;;;;;;;;;;;;;;;-144.99;91.57;52647.84;5034474;28;19925;-77
2022/12/13 01:32:46;;;;;;;;;;;;;;;-144.99;91.89;52641.72;5034447;28;19917;-77
2022/12/13 01:35:13;;;;;;;;;;;;;;;-144.99;92.20;52619.31;5034201;28;19957;-77
2022/12/13 01:37:39;;;;;;;;;;;;;;;-144.99;92.89;52651.94;5035831;28;19953;-77
2022/12/13 01:40:06;;;;;;;;;;;;;;;-144.99;92.64;52653.97;5035213;28;19940;-77
2022/12/13 01:42:33;;;;;;;;;;;;;;;-144.99;93.01;52639.69;5032861;28;19914;-75
2022/12/13 01:45:05;;;;;;;;;;;;;;;-144.99;93.34;52627.47;5035052;28;19937;-74
2022/12/13 01:47:35;;;;;;;;;;;;;;;-144.99;93.40;52651.94;5034931;28;19940;-75
2022/12/13 01:50:03;;;;;;;;;;;;;;;-144.99;93.48;52656.00;5033988;28;19940;-76
2022/12/13 01:52:32;;;;;;;;;;;;;;;-144.99;94.62;52656.00;5033592;28;19924;-75
2022/12/13 01:55:00;;;;;;;;;;;;;;;-144.99;94.80;52631.53;5034489;28;19933;-76
2022/12/13 01:57:26;;;;;;;;;;;;;;;-144.99;94.74;52605.03;5033709;28;19930;-75
2022/12/13 01:59:54;;;;;;;;;;;;;;;-144.99;95.22;52674.34;5035107;28;19940;-75
2022/12/13 02:02:21;;;;;;;;;;;;;;;-144.99;94.97;52631.53;5034105;28;19936;-75
2022/12/13 02:04:52;;;;;;;;;;;;;;;-144.99;94.87;52639.69;5034893;28;19925;-75
2022/12/13 02:07:21;;;;;;;;;;;;;;;-144.99;94.92;52651.94;5033985;28;19936;-75
2022/12/13 02:09:48;;;;;;;;;;;;;;;-144.99;94.95;52635.63;5033805;28;19914;-76
2022/12/13 02:12:15;;;;;;;;;;;;;;;-144.99;95.05;52643.78;5032948;28;19933;-76
2022/12/13 02:14:41;;;;;;;;;;;;;;;-144.99;94.85;52615.25;5032526;28;19979;-75
2022/12/13 02:17:13;;;;;;;;;;;;;;;-144.99;94.97;52651.94;5030662;28;19980;-75
2022/12/13 02:20:14;;;;;;;;;;;;;;;-144.99;95.09;52680.47;5029175;28;19926;-75
2022/12/13 02:22:48;;;;;;;;;;;;;;;-144.99;95.23;52623.38;5026867;28;19914;-75
2022/12/13 02:25:43;;;;;;;;;;;;;;;-144.99;95.33;52631.53;5034531;28;19936;-75
2022/12/13 02:28:17;;;;;;;;;;;;;;;-144.99;95.41;52668.22;5031380;28;19935;-75
2022/12/13 02:30:51;;;;;;;;;;;;;;;-144.99;95.54;52615.25;5032839;28;19930;-75
2022/12/13 02:33:25;;;;;;;;;;;;;;;-144.99;95.56;52639.69;5036368;28;19936;-78
2022/12/13 02:35:55;;;;;;;;;;;;;;;-144.99;95.77;52668.22;5035170;28;19929;-78
2022/12/13 02:38:26;;;;;;;;;;;;;;;-144.99;96.24;52635.63;5035390;28;20267;-78
2022/12/13 02:40:55;;;;;;;;;;;;;;;-144.99;96.10;52696.78;5033496;28;19913;-78
2022/12/13 02:43:24;;;;;;;;;;;;;;;-144.99;96.20;52643.78;5031277;28;19952;-79
2022/12/13 02:45:53;;;;;;;;;;;;;;;-144.99;96.99;52615.25;5030794;28;19932;-77
2022/12/13 02:48:23;;;;;;;;;;;;;;;-144.99;97.27;52658.03;5026620;28;19933;-78
2022/12/13 02:50:51;;;;;;;;;;;;;;;-144.99;97.22;52623.38;5027465;28;19926;-78
2022/12/13 02:53:20;;;;;;;;;;;;;;;-144.99;97.46;52631.53;5026012;28;19926;-75
2022/12/13 02:55:46;;;;;;;;;;;;;;;-144.99;97.66;52643.78;5026725;28;19925;-76
2022/12/13 02:58:13;;;;;;;;;;;;;;;-144.99;98.27;52676.38;5026031;28;19925;-76
2022/12/13 03:00:47;;;;;;;;;;;;;;;-144.99;97.93;52647.84;5027412;28;19992;-75
2022/12/13 03:03:21;;;;;;;;;;;;;;;-144.99;98.92;52651.94;5028446;28;19933;-74
2022/12/13 03:08:42;;;;;;;;;;;;;;;-144.99;99.31;52643.78;5026987;28;19968;-74
2022/12/13 03:11:10;;;;;;;;;;;;;;;-144.99;99.76;52651.94;5026966;28;19925;-74
2022/12/13 03:13:41;;;;;;;;;;;;;;;-144.99;99.78;52627.47;5020162;28;19957;-72
2022/12/13 03:16:11;;;;;;;;;;;;;;;-144.99;99.55;52631.53;5013257;28;19980;-73
2022/12/13 03:18:39;;;;;;;;;;;;;;;-144.99;99.45;52656.00;5022722;28;20396;-74
2022/12/13 03:21:07;;;;;;;;;;;;;;;-144.99;100.00;52627.47;5023510;28;19925;-74
2022/12/13 03:23:34;;;;;;;;;;;;;;;-144.99;100.00;52672.31;5022195;28;19952;-74
2022/12/13 03:26:02;;;;;;;;;;;;;;;-144.99;100.00;52627.47;5024340;28;20176;-73
2022/12/13 03:28:29;;;;;;;;;;;;;;;-144.99;100.00;52643.78;5021138;28;19964;-74
2022/12/13 03:30:55;;;;;;;;;;;;;;;-144.99;100.00;52676.38;5025457;28;19929;-76
2022/12/13 03:33:22;;;;;;;;;;;;;;;-144.99;100.00;52684.53;5023792;28;19929;-75
2022/12/13 03:35:50;;;;;;;;;;;;;;;-144.99;100.00;52668.22;5024519;28;19925;-74
2022/12/13 03:38:17;;;;;;;;;;;;;;;-144.99;100.00;52627.47;5023481;28;19956;-76
2022/12/13 03:40:44;;;;;;;;;;;;;;;-144.99;100.00;52656.00;5023264;28;19965;-75
2022/12/13 03:43:11;;;;;;;;;;;;;;;-144.99;100.00;52653.97;5020915;28;19951;-75
2022/12/13 03:45:38;;;;;;;;;;;;;;;-144.99;100.00;52592.81;5023609;28;19934;-75
2022/12/13 03:48:04;;;;;;;;;;;;;;;-144.99;100.00;52643.78;5024049;28;19929;-75
2022/12/13 03:50:31;;;;;;;;;;;;;;;-144.99;100.00;52641.72;5022059;28;19925;-74
2022/12/13 03:53:02;;;;;;;;;;;;;;;-144.99;100.00;52660.09;5022321;28;19953;-75
2022/12/13 03:55:29;;;;;;;;;;;;;;;-144.99;100.00;52639.69;5023177;28;19925;-75
2022/12/13 03:57:55;;;;;;;;;;;;;;;-144.99;100.00;52639.69;5020393;28;19925;-75
2022/12/13 04:00:22;;;;;;;;;;;;;;;-144.99;100.00;52651.94;5022598;28;19941;-77
2022/12/13 04:02:48;;;;;;;;;;;;;;;-144.99;100.00;52635.63;5022266;28;19925;-77
2022/12/13 04:05:15;;;;;;;;;;;;;;;-144.99;100.00;52660.09;5023403;28;19925;-77
2022/12/13 04:07:41;;;;;;;;;;;;;;;-144.99;100.00;52680.47;5008720;28;19936;-77
2022/12/13 04:10:10;;;;;;;;;;;;;;;-144.99;100.00;52594.84;5018673;28;19925;-75
2022/12/13 04:15:20;;;;;;;;;;;;;;;-144.99;100.00;52651.94;5018736;28;19937;-76
2022/12/13 04:17:47;;;;;;;;;;;;;;;-144.99;100.00;52611.16;5018376;28;19925;-76
2022/12/13 04:20:13;;;;;;;;;;;;;;;-144.99;100.00;52647.84;5024110;28;19913;-78
2022/12/13 04:22:40;;;;;;;;;;;;;;;-144.99;100.00;52651.94;5027860;28;19929;-77
2022/12/13 04:25:06;;;;;;;;;;;;;;;-144.99;100.00;52656.00;5028900;28;19929;-76
2022/12/13 04:27:36;;;;;;;;;;;;;;;-144.99;100.00;52582.63;5018095;28;20368;-76
2022/12/13 04:30:03;;;;;;;;;;;;;;;-144.99;100.00;52660.09;5017037;28;19976;-75
2022/12/13 04:32:30;;;;;;;;;;;;;;;-144.99;100.00;52647.84;5018488;28;19929;-75
2022/12/13 04:34:56;;;;;;;;;;;;;;;-144.99;100.00;52643.78;5019513;28;19925;-76
2022/12/13 04:37:23;;;;;;;;;;;;;;;-144.99;100.00;52607.09;5015139;28;20463;-76
2022/12/13 04:39:49;;;;;;;;;;;;;;;-144.99;100.00;52668.22;5010813;28;19948;-77
2022/12/13 04:42:16;;;;;;;;;;;;;;;-144.99;100.00;52615.25;5008579;28;19933;-77
2022/12/13 04:44:44;;;;;;;;;;;;;;;-144.99;100.00;52668.22;5011481;28;20324;-76
2022/12/13 04:47:10;;;;;;;;;;;;;;;-144.99;100.00;52664.16;5018636;28;19960;-76
2022/12/13 04:49:37;;;;;;;;;;;;;;;-144.99;100.00;52639.69;5019067;28;19929;-75
2022/12/13 04:52:04;;;;;;;;;;;;;;;-144.99;100.00;52656.00;5027206;28;19934;-78
2022/12/13 04:54:31;;;;;;;;;;;;;;;-144.99;100.00;52670.28;5033924;28;19921;-77
2022/12/13 04:56:57;;;;;;;;;;;;;;;-144.99;100.00;52623.38;5034300;28;19917;-78
2022/12/13 04:59:24;;;;;;;;;;;;;;;-144.99;100.00;52649.88;5032344;28;20273;-77
2022/12/13 05:01:52;;;;;;;;;;;;;;;-144.99;100.00;52627.47;5033320;28;20115;-76
2022/12/13 05:04:19;;;;;;;;;;;;;;;-144.99;100.00;52647.84;5034177;28;19948;-76
2022/12/13 05:06:45;;;;;;;;;;;;;;;-144.99;100.00;52627.47;5032009;28;19926;-75
2022/12/13 05:09:12;;;;;;;;;;;;;;;-144.99;100.00;52596.88;5020447;28;19937;-72
2022/12/13 05:11:38;;;;;;;;;;;;;;;-144.99;100.00;52615.25;5013620;28;20390;-71
2022/12/13 05:14:04;;;;;;;;;;;;;;;-144.99;100.00;52635.63;5010343;28;20445;-73
2022/12/13 05:16:31;;;;;;;;;;;;;;;-144.99;100.00;52645.81;5013015;28;19964;-74
2022/12/13 05:18:59;;;;;;;;;;;;;;;-144.99;100.00;52631.53;5013065;28;19967;-74
2022/12/13 05:21:25;;;;;;;;;;;;;;;-144.99;100.00;52627.47;5013775;28;20408;-74
2022/12/13 05:23:52;;;;;;;;;;;;;;;-144.99;100.00;52647.84;5012687;28;19995;-74
2022/12/13 05:26:18;;;;;;;;;;;;;;;-144.99;100.00;52647.84;5013293;28;19998;-77
2022/12/13 05:28:45;;;;;;;;;;;;;;;-144.99;100.00;52656.00;5011885;28;19925;-75
2022/12/13 05:31:12;;;;;;;;;;;;;;;-144.99;100.00;52639.69;5012895;28;19929;-74
2022/12/13 05:33:38;;;;;;;;;;;;;;;-144.99;100.00;52586.69;5011762;28;20012;-74
2022/12/13 05:36:07;;;;;;;;;;;;;;;-144.99;100.00;52676.38;5039621;23;19973;-76
2022/12/13 05:38:33;;;;;;;;;;;;;;;-144.99;100.00;52631.53;5028336;28;19926;-74
2022/12/13 05:41:00;;;;;;;;;;;;;;;-144.99;100.00;52621.34;5024858;28;19925;-74
2022/12/13 05:43:26;;;;;;;;;;;;;;;-144.99;100.00;52615.25;5027137;28;19921;-75
2022/12/13 05:45:53;;;;;;;;;;;;;;;-144.99;100.00;52641.72;5031168;28;19956;-75
2022/12/13 05:48:19;;;;;;;;;;;;;;;-144.99;100.00;52619.31;5016832;28;19925;-74
2022/12/13 05:50:46;;;;;;;;;;;;;;;-144.99;100.00;52664.16;5028440;28;19987;-77
2022/12/13 05:53:14;;;;;;;;;;;;;;;-144.99;100.00;52651.94;5025360;28;19925;-76
2022/12/13 05:55:41;;;;;;;;;;;;;;;-144.99;100.00;52631.53;5028962;28;19972;-73
2022/12/13 05:58:07;;;;;;;;;;;;;;;-144.99;100.00;52647.84;5030817;28;19913;-74
2022/12/13 06:00:33;;;;;;;;;;;;;;;-144.99;100.00;52649.88;5034541;28;20013;-74
2022/12/13 06:03:00;;;;;;;;;;;;;;;-144.99;100.00;52635.63;5033095;28;19914;-74
2022/12/13 06:05:27;;;;;;;;;;;;;;;-144.99;100.00;52686.59;5035765;28;19913;-74
2022/12/13 06:07:54;;;;;;;;;;;;;;;-144.99;100.00;52664.16;5035367;28;19924;-75
2022/12/13 06:10:22;;;;;;;;;;;;;;;-144.99;100.00;52603.00;5036055;28;19925;-75
2022/12/13 06:12:49;;;;;;;;;;;;;;;-144.99;100.00;52649.88;5034386;28;19913;-75
2022/12/13 06:15:15;;;;;;;;;;;;;;;-144.99;100.00;52649.88;5034077;28;19952;-74
2022/12/13 06:17:42;;;;;;;;;;;;;;;-144.99;100.00;52651.94;5035350;28;19921;-75
2022/12/13 06:20:09;;;;;;;;;;;;;;;-144.99;100.00;52635.63;5031803;28;19922;-75
2022/12/13 06:22:35;;;;;;;;;;;;;;;-144.99;100.00;52619.31;5034310;28;19914;-74
2022/12/13 06:25:02;;;;;;;;;;;;;;;-144.99;100.00;52619.31;5035162;28;19940;-74
2022/12/13 06:27:29;;;;;;;;;;;;;;;-144.99;100.00;52647.84;4330340;28;10000740;-76
2022/12/13 06:29:56;;;;;;;;;;;;;;;-144.99;100.00;52611.16;5033010;28;20060;-76
2022/12/13 06:32:22;;;;;;;;;;;;;;;-144.99;100.00;52684.53;5029132;28;19929;-77
2022/12/13 06:34:49;;;;;;;;;;;;;;;-144.99;100.00;52680.47;5034905;28;19914;-74
2022/12/13 06:37:15;;;;;;;;;;;;;;;-144.99;100.00;52643.78;5027270;28;19925;-76
2022/12/13 06:39:42;;;;;;;;;;;;;;;-144.99;100.00;52641.72;5021852;28;20108;-74
2022/12/13 06:42:14;;;;;;;;;;;;;;;-144.99;100.00;52656.00;5021645;28;19913;-73
2022/12/13 06:44:42;;;;;;;;;;;;;;;-144.99;100.00;52623.38;5026520;28;19961;-74
2022/12/13 06:47:09;;;;;;;;;;;;;;;-144.99;100.00;52586.69;5029461;28;19957;-73
2022/12/13 06:49:35;;;;;;;;;;;;;;;-144.99;100.00;52656.00;5030371;28;19940;-74
2022/12/13 06:52:02;;;;;;;;;;;;;;;-144.99;100.00;52643.78;5032652;28;19929;-74
2022/12/13 06:54:29;;;;;;;;;;;;;;;-144.99;100.00;52639.69;5032406;28;19914;-75
2022/12/13 06:56:55;;;;;;;;;;;;;;;-144.99;100.00;52639.69;5032742;28;19913;-74
2022/12/13 06:59:21;;;;;;;;;;;;;;;-144.99;100.00;52623.38;5031466;28;20016;-76
2022/12/13 07:01:49;;;;;;;;;;;;;;;-144.99;100.00;52611.16;5032047;28;19914;-74
2022/12/13 07:04:16;;;;;;;;;;;;;;;-144.99;100.00;52619.31;5032391;28;19963;-73
2022/12/13 07:06:42;;;;;;;;;;;;;;;-144.99;100.00;52611.16;5028226;28;20218;-72
2022/12/13 07:09:09;;;;;;;;;;;;;;;-144.99;100.00;52617.28;5026208;28;19937;-75
2022/12/13 07:11:35;;;;;;;;;;;;;;;-144.99;100.00;52607.09;5025486;28;19926;-77
2022/12/13 07:14:02;;;;;;;;;;;;;;;-144.99;100.00;52590.78;5022162;28;19929;-75
2022/12/13 07:16:28;;;;;;;;;;;;;;;-144.99;100.00;52611.16;5026226;28;19926;-75
2022/12/13 07:18:57;;;;;;;;;;;;;;;-144.99;100.00;52656.00;5025610;28;19913;-73
2022/12/13 07:21:24;;;;;;;;;;;;;;;-144.99;100.00;52660.09;5030227;28;19918;-73
2022/12/13 07:23:50;;;;;;;;;;;;;;;-144.99;100.00;52668.22;5025910;28;19925;-75
2022/12/13 07:26:17;;;;;;;;;;;;;;;-144.99;100.00;52637.66;5026647;28;19952;-74
2022/12/13 07:28:43;;;;;;;;;;;;;;;-144.99;100.00;52637.66;5024475;28;19929;-74
2022/12/13 07:31:10;;;;;;;;;;;;;;;-144.99;100.00;52647.84;5027124;28;19940;-75
2022/12/13 07:33:37;;;;;;;;;;;;;;;-144.99;100.00;52651.94;5030741;28;19925;-72
2022/12/13 07:36:06;;;;;;;;;;;;;;;-144.99;100.00;52584.66;5027930;28;19929;-73
2022/12/13 07:38:33;;;;;;;;;;;;;;;-144.99;100.00;52633.59;5026467;28;20332;-74
2022/12/13 07:40:59;;;;;;;;;;;;;;;-144.99;100.00;52619.31;5026195;28;19930;-74
2022/12/13 07:43:26;;;;;;;;;;;;;;;-144.99;100.00;52615.25;5023171;28;19929;-72
2022/12/13 07:45:52;;;;;;;;;;;;;;;-144.99;100.00;52643.78;5022369;28;19930;-75
2022/12/13 07:48:19;;;;;;;;;;;;;;;-144.99;100.00;52635.63;5022497;28;19963;-73
2022/12/13 07:50:46;;;;;;;;;;;;;;;-144.99;100.00;52641.72;5023698;28;19921;-72
2022/12/13 07:53:14;;;;;;;;;;;;;;;-144.99;100.00;52607.09;5019651;28;20478;-73
2022/12/13 07:55:40;;;;;;;;;;;;;;;-144.99;100.00;52603.00;5021230;28;20208;-73
2022/12/13 07:58:08;;;;;;;;;;;;;;;-144.99;100.00;52623.38;5020588;28;19913;-75
2022/12/13 08:00:34;;;;;;;;;;;;;;;-144.99;100.00;52627.47;4680279;28;10000119;-73
2022/12/13 08:03:01;;;;;;;;;;;;;;;-144.99;100.00;52627.47;5023748;28;19914;-73
2022/12/13 08:05:27;;;;;;;;;;;;;;;-144.99;100.00;52621.34;5024514;28;19956;-73
2022/12/13 08:07:54;;;;;;;;;;;;;;;-144.99;100.00;52605.03;5011016;28;20550;-75
2022/12/13 08:10:22;;;;;;;;;;;;;;;-144.99;100.00;52660.09;5005329;28;19925;-73
2022/12/13 08:12:49;;;;;;;;;;;;;;;-144.99;100.00;52615.25;5003229;28;19964;-73
2022/12/13 08:15:16;;;;;;;;;;;;;;;-144.99;100.00;52668.22;5006147;28;19967;-72
2022/12/13 08:17:42;;;;;;;;;;;;;;;-144.99;100.00;52635.63;5005884;28;20003;-74
2022/12/13 08:20:09;;;;;;;;;;;;;;;-144.99;100.00;52623.38;5003308;28;20019;-74
2022/12/13 08:22:36;;;;;;;;;;;;;;;-144.99;100.00;52611.16;5003945;28;20381;-73
2022/12/13 08:25:03;;;;;;;;;;;;;;;-144.99;100.00;52615.25;5004578;28;19980;-75
2022/12/13 08:27:30;;;;;;;;;;;;;;;-144.99;100.00;52594.84;5004037;28;19968;-74
2022/12/13 08:29:57;;;;;;;;;;;;;;;-144.99;100.00;52582.63;5004708;28;19965;-70
2022/12/13 08:32:24;;;;;;;;;;;;;;;-144.99;100.00;52611.16;5005253;28;20470;-74
2022/12/13 08:34:50;;;;;;;;;;;;;;;-144.99;100.00;52627.47;5007324;28;20024;-73
2022/12/13 08:37:17;;;;;;;;;;;;;;;-144.99;100.00;52609.13;5009556;28;19921;-73
2022/12/13 08:39:44;;;;;;;;;;;;;;;-144.99;100.00;52651.94;5026899;28;19925;-73
2022/12/13 08:42:12;;;;;;;;;;;;;;;-144.99;100.00;52615.25;5008103;28;20000;-73
2022/12/13 08:44:40;;;;;;;;;;;;;;;-144.99;100.00;52578.53;5004514;28;19981;-73
2022/12/13 08:47:06;;;;;;;;;;;;;;;-144.99;100.00;52623.38;5005271;28;19992;-73
2022/12/13 08:49:33;;;;;;;;;;;;;;;-144.99;99.45;52586.69;5004622;28;20024;-73
2022/12/13 08:51:59;;;;;;;;;;;;;;;-144.99;99.99;52590.78;5004179;28;19983;-75
2022/12/13 08:54:26;;;;;;;;;;;;;;;-144.99;99.95;52615.25;5004465;28;20028;-73
2022/12/13 08:56:53;;;;;;;;;;;;;;;-144.99;99.71;52578.53;5006189;28;20560;-73
2022/12/13 08:59:19;;;;;;;;;;;;;;;-144.99;99.43;52574.47;5021807;28;19930;-72
2022/12/13 09:01:47;;;;;;;;;;;;;;;-144.99;99.38;52643.78;5026633;28;20164;-74
2022/12/13 09:04:14;;;;;;;;;;;;;;;-144.99;99.06;52607.09;5026610;28;19914;-74
2022/12/13 09:06:42;;;;;;;;;;;;;;;-144.99;98.94;52623.38;5010776;28;19972;-75
2022/12/13 09:09:08;;;;;;;;;;;;;;;-144.99;98.94;52611.16;5004413;28;19932;-73
2022/12/13 09:11:35;;;;;;;;;;;;;;;-144.99;99.01;52627.47;5004248;28;19956;-72
2022/12/13 09:14:01;;;;;;;;;;;;;;;-144.99;98.79;52603.00;5002694;28;19933;-75
2022/12/13 09:16:29;;;;;;;;;;;;;;;-144.99;98.80;52611.16;5018346;28;19913;-73
2022/12/13 09:18:57;;;;;;;;;;;;;;;-144.99;98.61;52598.94;5028327;28;19929;-73
2022/12/13 09:21:23;;;;;;;;;;;;;;;-144.99;98.37;52627.47;5010345;28;19937;-72
2022/12/13 09:23:50;;;;;;;;;;;;;;;-144.99;97.69;52586.69;5006430;28;19935;-73
2022/12/13 09:26:16;;;;;;;;;;;;;;;-144.99;96.91;52639.69;5008416;28;19930;-73
2022/12/13 09:28:43;;;;;;;;;;;;;;;-144.99;96.95;52598.94;5004986;28;19988;-72
2022/12/13 09:31:11;;;;;;;;;;;;;;;-144.99;96.74;52619.31;5007132;28;20039;-75
2022/12/13 09:33:37;;;;;;;;;;;;;;;-144.99;96.16;52619.31;5008205;28;19925;-74
2022/12/13 09:36:06;;;;;;;;;;;;;;;-144.99;96.46;52623.38;5008655;28;20035;-74
2022/12/13 09:38:32;;;;;;;;;;;;;;;-144.99;96.54;52609.13;5007596;28;19945;-73
2022/12/13 09:41:00;;;;;;;;;;;;;;;-144.99;96.13;52615.25;5004320;28;19965;-73
2022/12/13 09:43:29;;;;;;;;;;;;;;;-144.99;96.24;52643.78;5007346;28;19929;-73
2022/12/13 09:45:55;;;;;;;;;;;;;;;-144.99;95.91;52566.31;5014401;28;19952;-72
2022/12/13 09:48:23;;;;;;;;;;;;;;;-144.99;94.86;52643.78;5026059;28;19933;-74
2022/12/13 09:50:50;;;;;;;;;;;;;;;-144.99;93.87;52635.63;5026121;28;20067;-74
2022/12/13 09:53:19;;;;;;;;;;;;;;;-144.99;93.91;52594.84;5014577;28;19926;-74
2022/12/13 09:55:47;;;;;;;;;;;;;;;-144.99;93.24;52615.25;5015918;28;19953;-73
2022/12/13 09:58:17;;;;;;;;;;;;;;;-144.99;93.30;52625.44;5029220;28;19968;-74
2022/12/13 10:00:43;;;;;;;;;;;;;;;-144.99;92.68;52600.97;5012473;28;20435;-73
2022/12/13 10:03:13;;;;;;;;;;;;;;;-144.99;92.96;52631.53;5010710;28;19979;-72
2022/12/13 10:05:40;;;;;;;;;;;;;;;-144.99;92.92;52578.53;5011788;28;19960;-73
2022/12/13 10:08:09;;;;;;;;;;;;;;;-144.99;93.60;52631.53;5010155;28;20072;-73
2022/12/13 10:10:37;;;;;;;;;;;;;;;-144.99;93.17;52590.78;5009671;28;19984;-74
2022/12/13 10:13:08;;;;;;;;;;;;;;;-144.99;93.44;52615.25;5005901;28;19930;-74
2022/12/13 10:15:36;;;;;;;;;;;;;;;-144.99;93.67;52582.63;5008723;28;19995;-74
2022/12/13 10:18:03;;;;;;;;;;;;;;;-144.99;93.27;52596.88;5008343;28;19980;-74
2022/12/13 10:20:30;;;;;;;;;;;;;;;-144.99;93.11;52609.13;5011754;28;19968;-73
2022/12/13 10:22:57;;;;;;;;;;;;;;;-144.99;92.95;52613.19;5011166;28;19929;-74
2022/12/13 10:25:38;;;;;;;;;;;;;;;-144.99;92.96;52611.16;5011055;28;20696;-74
2022/12/13 10:28:06;;;;;;;;;;;;;;;-144.99;92.45;52639.69;5008289;28;20469;-73
2022/12/13 10:30:39;;;;;;;;;;;;;;;-144.99;92.41;52637.66;5008005;28;19937;-73
2022/12/13 10:33:06;;;;;;;;;;;;;;;-144.99;92.42;52596.88;5008875;28;19976;-73
2022/12/13 10:35:34;;;;;;;;;;;;;;;-144.99;91.79;52613.19;5019932;28;19956;-73
2022/12/13 10:38:01;;;;;;;;;;;;;;;-144.99;91.56;52607.09;5020252;28;20482;-73
2022/12/13 10:40:32;;;;;;;;;;;;;;;-144.99;91.12;52607.09;5012500;28;20556;-73
2022/12/13 10:43:12;;;;;;;;;;;;;;;-144.99;90.90;52623.38;5004299;28;20471;-75
2022/12/13 10:45:38;;;;;;;;;;;;;;;-144.99;91.16;52631.53;5008470;28;19996;-75
2022/12/13 10:48:05;;;;;;;;;;;;;;;-144.99;90.85;52598.94;5006814;28;20003;-74
2022/12/13 10:50:32;;;;;;;;;;;;;;;-144.99;90.48;52623.38;5007991;28;19929;-74
2022/12/13 10:53:00;;;;;;;;;;;;;;;-144.99;91.09;52607.09;5006586;28;19964;-73
2022/12/13 10:55:28;;;;;;;;;;;;;;;-144.99;91.39;52619.31;5007277;28;19937;-73
2022/12/13 10:57:56;;;;;;;;;;;;;;;-144.99;91.01;52594.84;5005059;28;20028;-74
2022/12/13 11:00:39;;;;;;;;;;;;;;;-144.99;90.66;52623.38;5006645;28;19991;-74
2022/12/13 11:03:07;;;;;;;;;;;;;;;-144.99;90.41;52631.53;5004317;28;20254;-75
2022/12/13 11:05:34;;;;;;;;;;;;;;;-144.99;90.60;52619.31;5006821;28;20396;-72
2022/12/13 11:08:15;;;;;;;;;;;;;;;-144.99;90.53;52603.00;5006647;28;20426;-75
2022/12/13 11:10:42;;;;;;;;;;;;;;;-144.99;90.42;52598.94;5006734;28;19926;-75
2022/12/13 11:13:08;;;;;;;;;;;;;;;-144.99;90.25;52598.94;5011489;28;19977;-74
2022/12/13 11:15:37;;;;;;;;;;;;;;;-144.99;89.73;52635.63;5024839;28;19925;-74
2022/12/13 11:18:06;;;;;;;;;;;;;;;-144.99;89.18;52586.69;5012950;28;19929;-73
2022/12/13 11:20:34;;;;;;;;;;;;;;;-144.99;89.05;52607.09;5012899;28;20428;-75
2022/12/13 11:23:02;;;;;;;;;;;;;;;-144.99;88.25;52615.25;5011967;28;19988;-72
2022/12/13 11:25:31;;;;;;;;;;;;;;;-144.99;88.10;52560.19;5013155;28;20014;-74
2022/12/13 11:28:04;;;;;;;;;;;;;;;-144.99;87.56;52635.63;5011468;28;20013;-73
2022/12/13 11:30:36;;;;;;;;;;;;;;;-144.99;87.45;52619.31;5008146;28;19936;-73
2022/12/13 11:33:14;;;;;;;;;;;;;;;-144.99;87.60;52578.53;5005631;28;19930;-73
2022/12/13 11:35:50;;;;;;;;;;;;;;;-144.99;87.97;52594.84;5006920;28;19999;-72
2022/12/13 11:38:24;;;;;;;;;;;;;;;-144.99;88.10;52623.38;5034228;23;19913;-74
2022/12/13 11:40:53;;;;;;;;;;;;;;;-144.99;88.41;52627.47;5037069;28;20109;-74
2022/12/13 11:43:25;;;;;;;;;;;;;;;-144.99;89.56;52615.25;5028519;28;20024;-74
2022/12/13 11:45:54;;;;;;;;;;;;;;;-144.99;89.46;52617.28;5029512;28;19983;-74
2022/12/13 11:48:25;;;;;;;;;;;;;;;-144.99;89.72;52643.78;5013749;28;19921;-74
2022/12/13 11:50:55;;;;;;;;;;;;;;;-144.99;90.39;52603.00;5033551;28;19940;-74
2022/12/13 11:53:26;;;;;;;;;;;;;;;-144.99;90.75;52582.63;5035758;28;19913;-75
2022/12/13 11:55:55;;;;;;;;;;;;;;;-144.99;91.52;52603.00;5030465;28;19926;-76
2022/12/13 11:58:25;;;;;;;;;;;;;;;-144.99;92.37;52611.16;5028971;28;19913;-74
2022/12/13 12:00:55;;;;;;;;;;;;;;;-144.99;92.01;52611.16;5029018;28;19948;-74
2022/12/13 12:03:34;;;;;;;;;;;;;;;-144.99;92.24;52607.09;5030383;28;20076;-73
2022/12/13 12:06:05;;;;;;;;;;;;;;;-144.99;92.49;52623.38;5030586;28;19946;-75
2022/12/13 12:08:35;;;;;;;;;;;;;;;-144.99;93.00;52651.94;5030272;28;19945;-74
2022/12/13 12:11:07;;;;;;;;;;;;;;;-144.99;92.56;52617.28;5030553;28;19913;-74
2022/12/13 12:13:38;;;;;;;;;;;;;;;-144.99;92.25;52611.16;5028828;28;20148;-75
2022/12/13 12:16:09;;;;;;;;;;;;;;;-144.99;91.96;52598.94;5030891;28;19914;-74
2022/12/13 12:18:37;;;;;;;;;;;;;;;-144.99;91.96;52613.19;5030751;28;19914;-74
2022/12/13 12:21:08;;;;;;;;;;;;;;;-144.99;92.05;52592.81;5030799;28;19914;-75
2022/12/13 12:23:43;;;;;;;;;;;;;;;-144.99;91.84;52598.94;5028796;28;19923;-75
2022/12/13 12:26:13;;;;;;;;;;;;;;;-144.99;91.96;52623.38;5023123;28;19935;-74
2022/12/13 12:28:47;;;;;;;;;;;;;;;-144.99;91.51;52570.38;5023985;28;19913;-75
2022/12/13 12:31:18;;;;;;;;;;;;;;;-144.99;91.16;52576.50;5029694;28;19920;-74
2022/12/13 12:33:51;;;;;;;;;;;;;;;-144.99;91.25;52586.69;5032438;28;20128;-74